This is the latest recevied weather packets stored in our database for station/object ED3YAB-7. If no packets are shown the sender has not sent any weather packets the latest 10 day(s).
| Time | Temp. | Humidity | Pressure | Rain* | Wind** | Luminosity | Snow |
|---|---|---|---|---|---|---|---|
| 1777451603 | 20° C | 47% | 1017.1 hPa | - | - | - | - |
| 1777450410 | 19.44° C | 48% | 1017.1 hPa | - | - | - | - |
| 1777450403 | 19.44° C | 48% | 1017.1 hPa | - | - | - | - |
| 1777449202 | 18.33° C | 50% | 1017 hPa | - | - | - | - |
| 1777448002 | 17.78° C | 52% | 1017 hPa | - | - | - | - |
| 1777446810 | 16.67° C | 55% | 1016.7 hPa | - | - | - | - |
| 1777446802 | 16.67° C | 55% | 1016.7 hPa | - | - | - | - |
| 1777445602 | 16.67° C | 56% | 1016.6 hPa | - | - | - | - |
| 1777444409 | 16.11° C | 57% | 1016.4 hPa | - | - | - | - |
| 1777444409 | 16.11° C | 57% | 1016.4 hPa | - | - | - | - |
| 1777443202 | 15.56° C | 59% | 1016.4 hPa | - | - | - | - |
| 1777442002 | 15.56° C | 61% | 1016.4 hPa | - | - | - | - |
| 1777440809 | 15.56° C | 61% | 1016.3 hPa | - | - | - | - |
| 1777439601 | 15° C | 61% | 1016.4 hPa | - | - | - | - |
| 1777438401 | 15° C | 61% | 1016.4 hPa | - | - | - | - |
| 1777437208 | 15° C | 62% | 1016.4 hPa | - | - | - | - |
| 1777436001 | 15.56° C | 61% | 1016.2 hPa | - | - | - | - |
| 1777434801 | 16.11° C | 60% | 1016.3 hPa | - | - | - | - |
| 1777433601 | 16.11° C | 60% | 1016.6 hPa | - | - | - | - |
| 1777432402 | 16.11° C | 59% | 1016.7 hPa | - | - | - | - |
| 1777430002 | 16.11° C | 60% | 1017.2 hPa | - | - | - | - |
| 1777428802 | 16.11° C | 61% | 1017.2 hPa | - | - | - | - |
| 1777420401 | 16.11° C | 61% | 1018.1 hPa | - | - | - | - |
| 1777407802 | 16.67° C | 53% | 1016.9 hPa | - | - | - | - |
| 1777406602 | 17.22° C | 53% | 1016.5 hPa | - | - | - | - |
* Rain since midnight (hover to see other rain measurements)
** Current wind speed in m/s (hover to see current wind gust speed)